Time;durP1;ratioP1;P1;durP2;ratioP2;P2;SDS_P1;SDS_P2;PMS_P1;PMS_P2;Temp;Humidity;BMP_temperature;BMP_pressure;BME280_temperature;BME280_humidity;BME280_pressure;Samples;Min_cycle;Max_cycle;Signal;HPM_P1;HPM_P2
2023/03/10 00:01:11;;;;;;;16.05;9.43;;;1.70;99.90;;;;;;5123888;27;20058;-80
2023/03/10 00:03:36;;;;;;;20.30;10.25;;;1.70;99.90;;;;;;5131298;27;20446;-81
2023/03/10 00:06:02;;;;;;;15.70;8.27;;;1.70;99.90;;;;;;5122623;27;20051;-81
2023/03/10 00:08:28;;;;;;;17.00;9.50;;;1.70;99.90;;;;;;5086869;27;20051;-80
2023/03/10 00:10:54;;;;;;;18.38;10.18;;;1.80;99.90;;;;;;5096711;27;20566;-81
2023/03/10 00:13:20;;;;;;;19.05;9.35;;;1.70;99.90;;;;;;5100563;27;20058;-80
2023/03/10 00:15:47;;;;;;;16.27;9.07;;;2.60;99.90;;;;;;5111460;27;20130;-81
2023/03/10 00:18:13;;;;;;;15.57;8.50;;;2.70;99.90;;;;;;5129417;27;20074;-82
2023/03/10 00:20:40;;;;;;;14.80;8.65;;;2.90;99.90;;;;;;5127001;27;20047;-81
2023/03/10 00:23:06;;;;;;;16.70;8.40;;;;;;;;;;5095919;27;20054;-80
2023/03/10 00:25:32;;;;;;;17.30;9.60;;;1.70;99.90;;;;;;5098228;27;20050;-81
2023/03/10 00:27:59;;;;;;;18.17;9.55;;;2.50;99.90;;;;;;5116632;27;20047;-81
2023/03/10 00:30:25;;;;;;;16.15;8.70;;;2.00;99.90;;;;;;5115382;27;20106;-81
2023/03/10 00:32:51;;;;;;;17.23;9.00;;;3.00;99.90;;;;;;5102757;27;20050;-82
2023/03/10 00:35:17;;;;;;;16.80;9.50;;;1.80;99.90;;;;;;5115359;27;20059;-81
2023/03/10 00:37:42;;;;;;;15.75;8.55;;;1.80;99.90;;;;;;5100636;27;20074;-81
2023/03/10 00:40:10;;;;;;;15.82;8.75;;;1.80;99.90;;;;;;5121710;27;20539;-81
2023/03/10 00:42:36;;;;;;;15.25;8.85;;;1.80;99.90;;;;;;5118548;27;20482;-82
2023/03/10 00:45:02;;;;;;;17.45;9.25;;;3.50;99.90;;;;;;5116584;27;20050;-81
2023/03/10 00:47:28;;;;;;;17.13;9.63;;;1.80;99.90;;;;;;5133861;27;20046;-80
2023/03/10 00:49:54;;;;;;;14.13;8.25;;;2.60;99.90;;;;;;5103886;27;20110;-80
2023/03/10 00:52:20;;;;;;;14.35;8.60;;;1.90;99.90;;;;;;5132645;27;20046;-81
2023/03/10 00:54:46;;;;;;;15.60;8.90;;;2.30;99.90;;;;;;5119707;27;20525;-80
2023/03/10 00:57:18;;;;;;;13.77;7.95;;;2.20;99.90;;;;;;5119821;27;20251;-82
2023/03/10 00:59:44;;;;;;;15.68;8.45;;;1.70;99.90;;;;;;5116939;27;20069;-81
2023/03/10 01:02:10;;;;;;;14.30;8.50;;;2.70;99.90;;;;;;5102658;27;20058;-80
2023/03/10 01:04:36;;;;;;;14.15;8.38;;;1.80;99.90;;;;;;5099600;27;20046;-81
2023/03/10 01:07:03;;;;;;;13.65;7.28;;;1.80;99.90;;;;;;5106867;27;20047;-81
2023/03/10 01:09:28;;;;;;;14.75;7.70;;;1.80;99.90;;;;;;5133640;27;20046;-82
2023/03/10 01:11:54;;;;;;;15.07;7.85;;;1.80;99.90;;;;;;5108645;27;20090;-81
2023/03/10 01:14:20;;;;;;;17.88;9.45;;;1.80;99.90;;;;;;5085933;27;20138;-80
2023/03/10 01:16:46;;;;;;;14.85;8.50;;;1.70;99.90;;;;;;5100448;27;20137;-81
2023/03/10 01:19:12;;;;;;;14.60;7.90;;;3.30;99.90;;;;;;5122958;27;20056;-80
2023/03/10 01:21:39;;;;;;;15.85;8.15;;;1.80;99.90;;;;;;5095579;27;20046;-82
2023/03/10 01:24:06;;;;;;;17.45;9.73;;;2.70;99.90;;;;;;5117919;27;20158;-80
2023/03/10 01:26:36;;;;;;;17.38;9.88;;;1.80;99.90;;;;;;5139355;27;20129;-80
2023/03/10 01:29:02;;;;;;;21.27;11.50;;;1.80;99.90;;;;;;5100445;27;20057;-81
2023/03/10 01:31:27;;;;;;;23.63;12.60;;;1.80;99.90;;;;;;5103142;27;20054;-81
2023/03/10 01:33:53;;;;;;;20.48;11.48;;;1.80;99.90;;;;;;5106013;27;20049;-80
2023/03/10 01:36:25;;;;;;;23.08;12.13;;;1.80;99.90;;;;;;5105465;27;20107;-80
2023/03/10 01:38:52;;;;;;;22.38;12.15;;;1.80;99.90;;;;;;5116786;27;20051;-81
2023/03/10 01:41:19;;;;;;;24.17;12.15;;;1.70;99.90;;;;;;5117403;27;20059;-80
2023/03/10 01:43:50;;;;;;;24.60;13.27;;;1.80;99.90;;;;;;5123022;27;20034;-81
2023/03/10 01:46:51;;;;;;;22.42;12.45;;;1.80;99.90;;;;;;5114262;27;20407;-81
2023/03/10 01:49:22;;;;;;;24.23;13.60;;;1.80;99.90;;;;;;5123926;27;20070;-81
2023/03/10 01:51:58;;;;;;;23.40;13.07;;;0.80;99.90;;;;;;5129744;27;20046;-81
2023/03/10 01:54:37;;;;;;;21.20;12.20;;;1.80;99.90;;;;;;5123400;27;20046;-81
2023/03/10 01:57:05;;;;;;;20.95;11.10;;;1.90;99.90;;;;;;5122088;27;20584;-82
2023/03/10 01:59:32;;;;;;;19.00;10.95;;;1.80;99.90;;;;;;5140209;27;20050;-82
2023/03/10 02:02:00;;;;;;;18.20;10.80;;;1.80;99.90;;;;;;5116354;27;20406;-80
2023/03/10 02:04:43;;;;;;;18.35;9.75;;;3.90;99.90;;;;;;5119936;27;20096;-81
2023/03/10 02:07:11;;;;;;;17.88;10.23;;;2.70;99.90;;;;;;5134936;27;20046;-80
2023/03/10 02:09:43;;;;;;;17.13;9.93;;;2.40;99.90;;;;;;5137793;27;21423;-82
2023/03/10 02:12:09;;;;;;;15.10;8.82;;;2.50;99.90;;;;;;5127907;27;20047;-80
2023/03/10 02:14:35;;;;;;;14.13;8.93;;;1.80;99.90;;;;;;5104708;27;20129;-81
2023/03/10 02:17:03;;;;;;;13.93;8.57;;;1.90;99.90;;;;;;5113245;27;20042;-81
2023/03/10 02:19:38;;;;;;;14.35;8.00;;;1.80;99.90;;;;;;5119200;27;20042;-82
2023/03/10 02:22:07;;;;;;;14.32;8.20;;;1.80;99.90;;;;;;5119800;27;20039;-81
2023/03/10 02:25:01;;;;;;;13.15;7.85;;;1.80;99.90;;;;;;5127193;27;20051;-80
2023/03/10 02:27:31;;;;;;;12.80;7.32;;;2.40;99.90;;;;;;5124595;27;20046;-81
2023/03/10 02:30:08;;;;;;;13.85;7.68;;;2.00;99.90;;;;;;5127271;27;20054;-80
2023/03/10 02:32:43;;;;;;;12.55;6.95;;;1.80;99.90;;;;;;5115030;27;20047;-81
2023/03/10 02:35:09;;;;;;;14.88;9.10;;;1.80;99.90;;;;;;5125275;27;20047;-81
2023/03/10 02:37:35;;;;;;;14.82;8.52;;;1.80;99.90;;;;;;5117572;27;20474;-80
2023/03/10 02:40:36;;;;;;;15.10;9.05;;;1.80;99.90;;;;;;5120813;27;20420;-81
2023/03/10 02:43:22;;;;;;;16.83;9.68;;;1.80;99.90;;;;;;5122827;27;20046;-81
2023/03/10 02:45:49;;;;;;;13.48;8.55;;;1.80;99.90;;;;;;5136390;27;20034;-84
2023/03/10 02:48:24;;;;;;;16.23;9.45;;;3.40;99.90;;;;;;5122160;27;20053;-80
2023/03/10 02:50:51;;;;;;;13.85;8.45;;;1.90;99.90;;;;;;5117245;27;20046;-81
2023/03/10 02:53:24;;;;;;;17.70;9.02;;;1.80;99.90;;;;;;5118667;27;20056;-80
2023/03/10 02:55:50;;;;;;;14.73;8.77;;;1.80;99.90;;;;;;5136737;27;20775;-81
2023/03/10 02:58:17;;;;;;;15.00;9.02;;;2.90;99.90;;;;;;5118767;27;20046;-80
2023/03/10 03:00:45;;;;;;;15.70;9.70;;;3.20;99.90;;;;;;5120474;27;20133;-80
2023/03/10 03:03:12;;;;;;;15.55;9.10;;;1.80;99.90;;;;;;5117122;27;20063;-81
2023/03/10 03:05:38;;;;;;;16.25;9.45;;;1.70;99.90;;;;;;5115711;27;20080;-80
2023/03/10 03:08:05;;;;;;;16.35;9.77;;;3.20;99.90;;;;;;5127205;27;20121;-81
2023/03/10 03:10:37;;;;;;;16.38;8.90;;;1.80;99.90;;;;;;5106778;27;20061;-79
2023/03/10 03:13:05;;;;;;;15.50;8.77;;;2.40;99.90;;;;;;5120179;27;20129;-80
2023/03/10 03:15:32;;;;;;;14.45;8.65;;;3.20;99.90;;;;;;5104477;27;20053;-82
2023/03/10 03:17:58;;;;;;;15.60;9.25;;;1.70;99.90;;;;;;5129347;27;20153;-80
2023/03/10 03:20:29;;;;;;;13.98;8.57;;;1.80;99.90;;;;;;5104796;27;20066;-80
2023/03/10 03:22:58;;;;;;;14.88;8.85;;;2.20;99.90;;;;;;5115289;27;21101;-82
2023/03/10 03:25:26;;;;;;;15.27;9.27;;;1.70;99.90;;;;;;5104334;27;20062;-81
2023/03/10 03:27:52;;;;;;;15.30;9.55;;;1.80;99.90;;;;;;5114492;27;20046;-83
2023/03/10 03:30:25;;;;;;;15.57;9.23;;;2.90;99.90;;;;;;5122815;27;20061;-81
2023/03/10 03:32:54;;;;;;;16.25;9.35;;;1.70;99.90;;;;;;5112813;27;20061;-82
2023/03/10 03:35:24;;;;;;;15.30;8.90;;;1.70;99.90;;;;;;5120218;27;20456;-81
2023/03/10 03:37:51;;;;;;;17.52;10.13;;;1.90;99.90;;;;;;5115886;27;20149;-83
2023/03/10 03:40:18;;;;;;;16.10;9.57;;;1.70;99.90;;;;;;5115866;27;20047;-79
2023/03/10 03:42:46;;;;;;;17.70;8.88;;;1.70;99.90;;;;;;5110821;27;20127;-80
2023/03/10 03:45:16;;;;;;;17.40;9.77;;;1.70;99.90;;;;;;5112768;27;20050;-82
2023/03/10 03:47:43;;;;;;;17.10;9.65;;;1.70;99.90;;;;;;5119790;27;20043;-81
2023/03/10 03:50:12;;;;;;;17.85;9.70;;;1.70;99.90;;;;;;5117690;27;20142;-81
2023/03/10 03:52:38;;;;;;;16.75;9.55;;;1.70;99.90;;;;;;5130053;27;20054;-81
2023/03/10 03:55:05;;;;;;;17.42;10.00;;;2.60;99.90;;;;;;5097029;27;20079;-81
2023/03/10 03:57:31;;;;;;;17.48;10.27;;;1.70;99.90;;;;;;5118830;27;20070;-81
2023/03/10 03:59:57;;;;;;;16.83;9.18;;;1.60;99.90;;;;;;5130943;27;20046;-82
2023/03/10 04:02:23;;;;;;;16.65;9.98;;;1.60;99.90;;;;;;5122581;27;20095;-81
2023/03/10 04:04:49;;;;;;;19.52;10.20;;;1.80;99.90;;;;;;5113962;27;20058;-81
2023/03/10 04:07:15;;;;;;;18.75;10.75;;;2.00;99.90;;;;;;5117792;27;20094;-81
2023/03/10 04:09:42;;;;;;;18.10;10.93;;;1.50;99.90;;;;;;5107263;27;20046;-81
2023/03/10 04:12:08;;;;;;;18.95;9.98;;;1.50;99.90;;;;;;5116302;27;20128;-81
2023/03/10 04:14:35;;;;;;;19.35;10.40;;;1.50;99.90;;;;;;5103081;27;20499;-81
2023/03/10 04:17:02;;;;;;;19.58;10.45;;;1.90;99.90;;;;;;5108460;27;20042;-81
2023/03/10 04:19:28;;;;;;;21.60;11.27;;;1.40;99.90;;;;;;5116216;27;20138;-81
2023/03/10 04:21:54;;;;;;;19.00;10.80;;;1.40;99.90;;;;;;5118598;27;20055;-83
2023/03/10 04:24:20;;;;;;;18.00;10.38;;;1.40;99.90;;;;;;5084763;27;20050;-81
2023/03/10 04:26:46;;;;;;;17.45;10.20;;;1.40;99.90;;;;;;5098997;27;20035;-83
2023/03/10 04:29:12;;;;;;;17.48;10.52;;;1.40;99.90;;;;;;5100086;27;20384;-82
2023/03/10 04:31:38;;;;;;;19.45;10.77;;;-0.30;99.90;;;;;;5146122;27;20060;-81
2023/03/10 04:34:04;;;;;;;17.80;10.93;;;1.40;99.90;;;;;;5110821;27;20533;-80
2023/03/10 04:36:30;;;;;;;19.13;11.30;;;1.40;99.90;;;;;;5115874;27;20050;-82
2023/03/10 04:38:55;;;;;;;20.42;10.90;;;1.50;99.90;;;;;;5103008;27;21080;-83
2023/03/10 04:41:21;;;;;;;20.83;10.40;;;1.70;99.90;;;;;;5116146;27;20403;-82
2023/03/10 04:43:47;;;;;;;19.30;10.35;;;1.90;99.90;;;;;;5110043;27;20053;-82
2023/03/10 04:46:13;;;;;;;18.48;11.00;;;1.50;99.90;;;;;;5111838;27;20107;-82
2023/03/10 04:48:39;;;;;;;18.10;10.35;;;1.40;99.90;;;;;;5129994;27;20452;-81
2023/03/10 04:51:07;;;;;;;17.98;9.98;;;1.90;99.90;;;;;;5096490;27;20511;-82
2023/03/10 04:53:34;;;;;;;18.55;10.43;;;1.30;99.90;;;;;;5121972;27;20124;-80
2023/03/10 04:56:02;;;;;;;18.02;10.40;;;1.60;99.90;;;;;;5123845;27;21728;-81
2023/03/10 04:58:27;;;;;;;18.42;10.10;;;2.80;99.90;;;;;;5117916;27;20034;-80
2023/03/10 05:00:53;;;;;;;17.75;10.00;;;2.60;99.90;;;;;;5094492;27;20552;-80
2023/03/10 05:03:19;;;;;;;17.17;9.13;;;1.30;99.90;;;;;;5089219;27;20142;-81
2023/03/10 05:05:45;;;;;;;17.15;9.52;;;2.10;99.90;;;;;;5113544;27;20491;-80
2023/03/10 05:08:11;;;;;;;17.17;10.15;;;1.30;99.90;;;;;;5110833;27;20038;-81
2023/03/10 05:10:42;;;;;;;18.13;10.48;;;3.20;99.90;;;;;;5116870;27;20582;-81
2023/03/10 05:13:11;;;;;;;14.65;8.75;;;1.30;99.90;;;;;;5116639;27;20050;-81
2023/03/10 05:15:41;;;;;;;16.52;10.02;;;2.70;99.90;;;;;;5128619;27;20042;-82
2023/03/10 05:18:08;;;;;;;16.80;9.73;;;1.50;99.90;;;;;;5108582;27;20755;-81
2023/03/10 05:20:35;;;;;;;16.23;9.43;;;1.30;99.90;;;;;;5102869;27;20046;-81
2023/03/10 05:23:01;;;;;;;17.58;9.90;;;1.90;99.90;;;;;;5113684;27;20070;-79
2023/03/10 05:25:27;;;;;;;19.42;10.60;;;1.20;99.90;;;;;;5098934;27;20132;-82
2023/03/10 05:27:53;;;;;;;21.10;11.15;;;1.20;99.90;;;;;;5123594;27;20119;-82
2023/03/10 05:30:19;;;;;;;22.85;12.25;;;1.40;99.90;;;;;;5110955;27;20058;-81
2023/03/10 05:32:45;;;;;;;22.95;11.77;;;1.20;99.90;;;;;;5099611;27;20050;-81
2023/03/10 05:35:12;;;;;;;23.02;11.75;;;1.20;99.90;;;;;;5104105;27;20050;-81
2023/03/10 05:37:39;;;;;;;23.45;12.23;;;1.10;99.90;;;;;;5114423;27;20503;-81
2023/03/10 05:40:11;;;;;;;23.83;12.75;;;1.80;99.90;;;;;;5125000;27;20043;-81
2023/03/10 05:42:37;;;;;;;30.67;14.82;;;1.10;99.90;;;;;;5130011;27;20038;-81
2023/03/10 05:45:04;;;;;;;27.45;13.50;;;1.10;99.90;;;;;;5130070;27;20387;-81
2023/03/10 05:47:30;;;;;;;27.75;13.88;;;1.10;99.90;;;;;;5126626;27;20079;-80
2023/03/10 05:49:56;;;;;;;27.75;13.55;;;1.00;99.90;;;;;;5126403;27;20043;-81
2023/03/10 05:52:22;;;;;;;25.10;12.95;;;1.70;99.90;;;;;;5123139;27;20417;-80
2023/03/10 05:54:47;;;;;;;26.13;12.65;;;1.00;99.90;;;;;;5086513;27;20046;-81
2023/03/10 05:57:13;;;;;;;25.13;13.23;;;1.80;99.90;;;;;;5125998;27;20078;-80
2023/03/10 05:59:39;;;;;;;27.30;13.50;;;1.40;99.90;;;;;;5096368;27;20053;-80
2023/03/10 06:02:05;;;;;;;23.77;12.82;;;1.80;99.90;;;;;;5126812;27;20129;-78
2023/03/10 06:04:32;;;;;;;25.73;12.80;;;1.20;99.90;;;;;;5098690;27;20055;-77
2023/03/10 06:07:01;;;;;;;24.15;11.95;;;0.90;99.90;;;;;;5116940;27;20149;-77
2023/03/10 06:09:31;;;;;;;26.63;11.85;;;1.50;99.90;;;;;;5118893;27;20518;-78
2023/03/10 06:11:58;;;;;;;24.50;12.20;;;0.90;99.90;;;;;;5094454;27;20046;-77
2023/03/10 06:14:24;;;;;;;23.17;11.98;;;1.30;99.90;;;;;;5115335;27;20042;-78
2023/03/10 06:16:53;;;;;;;21.60;10.82;;;0.90;99.90;;;;;;5128109;27;20050;-79
2023/03/10 06:19:23;;;;;;;22.88;11.63;;;1.80;99.90;;;;;;5116666;27;20102;-78
2023/03/10 06:21:49;;;;;;;24.23;12.35;;;0.90;99.90;;;;;;5127878;27;20050;-78
2023/03/10 06:24:15;;;;;;;21.40;11.35;;;1.20;99.90;;;;;;5130586;27;20053;-78
2023/03/10 06:26:41;;;;;;;23.20;10.85;;;0.90;99.90;;;;;;5103796;27;20046;-79
2023/03/10 06:29:07;;;;;;;17.30;9.50;;;1.40;99.90;;;;;;5114203;27;20519;-79
2023/03/10 06:31:33;;;;;;;21.13;10.32;;;0.80;99.90;;;;;;5129066;27;20476;-79
2023/03/10 06:33:59;;;;;;;19.88;9.65;;;1.00;99.90;;;;;;5110574;27;20079;-79
2023/03/10 06:36:26;;;;;;;16.50;9.02;;;2.00;99.90;;;;;;5080832;27;20042;-79
2023/03/10 06:38:53;;;;;;;16.55;9.43;;;2.20;99.90;;;;;;5116963;27;20059;-79
2023/03/10 06:41:20;;;;;;;16.50;8.65;;;0.80;99.90;;;;;;5132368;27;20537;-78
2023/03/10 06:43:47;;;;;;;17.42;9.10;;;0.80;99.90;;;;;;5098598;27;20113;-79
2023/03/10 06:46:13;;;;;;;19.23;9.63;;;0.80;99.90;;;;;;5114112;27;20046;-79
2023/03/10 06:48:41;;;;;;;19.30;9.20;;;1.20;99.90;;;;;;5095524;27;20042;-79
2023/03/10 06:51:09;;;;;;;15.80;8.77;;;0.80;99.90;;;;;;5128672;27;20045;-81
2023/03/10 06:53:35;;;;;;;17.75;9.20;;;1.10;99.90;;;;;;5126803;27;20046;-79
2023/03/10 06:56:06;;;;;;;20.67;10.07;;;0.90;99.90;;;;;;5092443;27;20191;-79
2023/03/10 06:58:34;;;;;;;17.67;9.73;;;0.90;99.90;;;;;;5117244;27;20471;-79
2023/03/10 07:01:00;;;;;;;15.90;8.80;;;0.90;99.90;;;;;;5103737;27;20053;-79
2023/03/10 07:03:27;;;;;;;18.85;9.45;;;0.90;99.90;;;;;;5136505;27;20046;-82
2023/03/10 07:05:55;;;;;;;17.75;9.57;;;0.90;99.90;;;;;;5138116;27;20112;-80
2023/03/10 07:08:21;;;;;;;18.73;9.98;;;1.50;99.90;;;;;;5138725;27;20081;-82
2023/03/10 07:10:47;;;;;;;17.33;8.38;;;1.80;99.90;;;;;;5123598;27;20136;-79
2023/03/10 07:13:14;;;;;;;18.13;9.70;;;1.00;99.90;;;;;;5123462;27;20081;-81
2023/03/10 07:15:41;;;;;;;18.38;9.15;;;1.00;99.90;;;;;;5118513;27;20046;-79
2023/03/10 07:18:07;;;;;;;18.75;10.05;;;1.10;99.90;;;;;;5131151;27;20086;-81
2023/03/10 07:20:33;;;;;;;16.70;9.93;;;-0.50;99.90;;;;;;5116989;27;20844;-82
2023/03/10 07:22:59;;;;;;;19.73;9.73;;;1.00;99.90;;;;;;5116574;27;20566;-81
2023/03/10 07:25:25;;;;;;;17.08;9.50;;;1.00;99.90;;;;;;5114385;27;20098;-81
2023/03/10 07:27:51;;;;;;;18.27;10.00;;;1.00;99.90;;;;;;5106691;27;20043;-82
2023/03/10 07:30:17;;;;;;;18.92;10.30;;;1.00;99.90;;;;;;5092817;27;20047;-80
2023/03/10 07:32:42;;;;;;;20.08;9.73;;;1.00;99.90;;;;;;5134109;27;20054;-80
2023/03/10 07:35:09;;;;;;;18.20;9.85;;;1.80;99.90;;;;;;5105610;27;20129;-80
2023/03/10 07:37:41;;;;;;;16.70;9.85;;;1.00;99.90;;;;;;5117590;27;20046;-81
2023/03/10 07:40:08;;;;;;;19.88;10.02;;;2.60;99.90;;;;;;5123009;27;20050;-81
2023/03/10 07:42:34;;;;;;;17.65;9.40;;;1.10;99.90;;;;;;5113152;27;20089;-81
2023/03/10 07:45:00;;;;;;;17.73;9.27;;;1.10;99.90;;;;;;5102059;27;20141;-81
2023/03/10 07:47:25;;;;;;;15.75;8.77;;;2.50;99.90;;;;;;5097704;27;20537;-82
2023/03/10 07:49:51;;;;;;;16.17;9.20;;;1.10;99.90;;;;;;5121752;27;20970;-80
2023/03/10 07:52:18;;;;;;;15.25;8.75;;;1.10;99.90;;;;;;5123427;27;20509;-81
2023/03/10 07:54:44;;;;;;;16.55;8.77;;;1.10;99.90;;;;;;5088833;27;20058;-79
2023/03/10 07:57:12;;;;;;;14.93;8.32;;;1.10;99.90;;;;;;5119641;27;20043;-82
2023/03/10 07:59:38;;;;;;;16.63;8.73;;;1.20;99.90;;;;;;5131085;27;20809;-79
2023/03/10 08:02:04;;;;;;;13.88;7.68;;;1.90;99.90;;;;;;5103577;27;20111;-79
2023/03/10 08:04:30;;;;;;;13.50;7.60;;;1.20;99.90;;;;;;5117667;27;20161;-79
2023/03/10 08:06:55;;;;;;;14.70;7.78;;;1.20;99.90;;;;;;5116796;27;20072;-81
2023/03/10 08:09:21;;;;;;;14.43;7.72;;;1.20;99.90;;;;;;5115548;27;20046;-80
2023/03/10 08:11:47;;;;;;;14.65;8.27;;;2.00;99.90;;;;;;5107909;27;20050;-80
2023/03/10 08:14:14;;;;;;;12.70;6.93;;;2.50;99.90;;;;;;5107663;27;20479;-80
2023/03/10 08:16:40;;;;;;;14.30;7.72;;;1.20;99.90;;;;;;5110058;27;20053;-79
2023/03/10 08:19:06;;;;;;;15.35;7.75;;;1.80;99.90;;;;;;5110395;27;20042;-80
2023/03/10 08:21:32;;;;;;;15.38;8.35;;;1.20;99.90;;;;;;5095518;27;20077;-80
2023/03/10 08:23:58;;;;;;;13.68;7.43;;;3.20;99.90;;;;;;5118194;27;20046;-79
2023/03/10 08:26:23;;;;;;;15.30;7.93;;;1.50;99.90;;;;;;5098794;27;20054;-80
2023/03/10 08:28:49;;;;;;;16.45;8.10;;;1.20;99.90;;;;;;5098389;27;20839;-78
2023/03/10 08:31:18;;;;;;;18.60;9.50;;;1.30;99.90;;;;;;5128131;27;20078;-78
2023/03/10 08:33:45;;;;;;;17.77;9.10;;;1.50;99.90;;;;;;5134507;27;20078;-77
2023/03/10 08:36:14;;;;;;;17.33;9.57;;;1.30;99.90;;;;;;5129797;27;20115;-78
2023/03/10 08:38:41;;;;;;;19.35;9.90;;;1.50;99.90;;;;;;5129598;27;20042;-78
2023/03/10 08:41:13;;;;;;;20.77;10.45;;;1.30;99.90;;;;;;5121974;27;20046;-77
2023/03/10 08:43:39;;;;;;;18.98;10.68;;;1.30;99.90;;;;;;5129631;27;20126;-77
2023/03/10 08:46:05;;;;;;;20.70;11.48;;;1.30;99.90;;;;;;5129186;27;20056;-78
2023/03/10 08:48:32;;;;;;;16.33;9.88;;;1.90;99.90;;;;;;5121092;27;20546;-78
2023/03/10 08:50:58;;;;;;;16.92;9.40;;;1.40;99.90;;;;;;5125784;27;20054;-77
2023/03/10 08:53:24;;;;;;;18.52;9.25;;;1.40;99.90;;;;;;5130232;27;20042;-78
2023/03/10 08:55:50;;;;;;;17.45;8.75;;;2.00;99.90;;;;;;5131487;27;20047;-78
2023/03/10 08:58:15;;;;;;;16.58;9.45;;;1.40;99.90;;;;;;5081701;27;20098;-78
2023/03/10 09:00:41;;;;;;;17.05;10.18;;;2.40;99.90;;;;;;5126151;27;20110;-81
2023/03/10 09:03:09;;;;;;;19.55;10.70;;;2.30;99.90;;;;;;5121376;27;20074;-77
2023/03/10 09:05:36;;;;;;;18.88;10.63;;;2.90;99.90;;;;;;5128589;27;21274;-78
2023/03/10 09:08:03;;;;;;;20.70;11.40;;;1.40;99.90;;;;;;5117502;27;20034;-77
2023/03/10 09:10:29;;;;;;;18.88;10.80;;;1.40;99.90;;;;;;5113113;27;20050;-78
2023/03/10 09:12:55;;;;;;;20.48;11.88;;;1.50;99.90;;;;;;5112155;27;20053;-78
2023/03/10 09:15:21;;;;;;;21.08;11.45;;;1.50;99.90;;;;;;5149398;27;20039;-78
2023/03/10 09:17:47;;;;;;;19.15;11.05;;;1.50;99.90;;;;;;5119332;27;20050;-79
2023/03/10 09:20:14;;;;;;;22.58;12.07;;;1.50;99.90;;;;;;5133397;27;20041;-83
2023/03/10 09:22:41;;;;;;;22.15;12.13;;;1.50;99.90;;;;;;5104919;27;20054;-81
2023/03/10 09:25:08;;;;;;;24.52;11.73;;;1.50;99.90;;;;;;5121472;27;20479;-80
2023/03/10 09:27:34;;;;;;;22.75;11.70;;;1.50;99.90;;;;;;5122976;27;20414;-81
2023/03/10 09:30:00;;;;;;;21.10;11.45;;;2.90;99.90;;;;;;5102605;27;20043;-81
2023/03/10 09:32:26;;;;;;;21.30;12.57;;;1.60;99.90;;;;;;5105624;27;20145;-80
2023/03/10 09:34:52;;;;;;;21.52;10.80;;;2.40;99.90;;;;;;5100386;27;20043;-80
2023/03/10 09:37:18;;;;;;;22.67;11.15;;;2.40;99.90;;;;;;5129392;27;20045;-80
2023/03/10 09:39:44;;;;;;;23.25;12.05;;;2.40;99.90;;;;;;5121335;27;20046;-80
2023/03/10 09:42:15;;;;;;;19.23;10.98;;;1.70;99.90;;;;;;5085027;27;20354;-79
2023/03/10 09:44:53;;;;;;;19.25;11.02;;;1.70;99.90;;;;;;5123462;27;20050;-80
2023/03/10 09:47:27;;;;;;;19.45;10.35;;;1.70;99.90;;;;;;5120706;27;20041;-78
2023/03/10 09:50:02;;;;;;;20.17;10.23;;;1.70;99.90;;;;;;5128779;27;20043;-80
2023/03/10 09:52:42;;;;;;;17.67;9.43;;;1.80;99.90;;;;;;5126088;27;20046;-80
2023/03/10 09:55:19;;;;;;;17.65;9.88;;;2.10;99.90;;;;;;5113734;27;20054;-81
2023/03/10 09:57:55;;;;;;;17.70;10.27;;;0.50;99.90;;;;;;5121758;27;20046;-80
2023/03/10 10:00:31;;;;;;;15.65;9.15;;;2.00;99.90;;;;;;5099626;27;20693;-80
2023/03/10 10:03:18;;;;;;;14.90;9.05;;;1.90;99.90;;;;;;5131013;27;20522;-80
2023/03/10 10:05:44;;;;;;;17.67;9.68;;;1.90;99.90;;;;;;5129806;27;21509;-79
2023/03/10 10:08:36;;;;;;;15.32;9.15;;;2.00;99.90;;;;;;5128344;27;20581;-78
2023/03/10 10:11:04;;;;;;;15.80;9.23;;;2.00;99.90;;;;;;5131995;27;20042;-80
2023/03/10 10:13:34;;;;;;;21.48;9.02;;;2.00;99.90;;;;;;5123600;27;20135;-79
2023/03/10 10:16:15;;;;;;;16.73;9.55;;;2.20;99.90;;;;;;5122017;27;20062;-79
2023/03/10 10:18:46;;;;;;;18.48;9.57;;;2.00;99.90;;;;;;5117365;27;20663;-80
2023/03/10 10:21:15;;;;;;;15.63;8.70;;;2.10;99.90;;;;;;5137271;27;20061;-78
2023/03/10 10:23:50;;;;;;;16.27;9.23;;;2.10;99.90;;;;;;5134947;27;20047;-79
2023/03/10 10:26:19;;;;;;;13.30;7.85;;;2.20;99.90;;;;;;5118803;27;20098;-78
2023/03/10 10:28:56;;;;;;;15.23;7.95;;;2.20;99.90;;;;;;5139276;27;20063;-78
2023/03/10 10:31:27;;;;;;;16.75;8.82;;;2.20;99.90;;;;;;5134015;27;20051;-80
2023/03/10 10:33:55;;;;;;;13.35;7.72;;;2.20;99.90;;;;;;5133177;27;20046;-78
2023/03/10 10:36:23;;;;;;;15.20;8.02;;;2.60;99.90;;;;;;5140017;27;20050;-80
2023/03/10 10:38:51;;;;;;;12.77;7.20;;;2.60;99.90;;;;;;5123089;27;20453;-78
2023/03/10 10:41:20;;;;;;;15.15;6.82;;;2.30;99.90;;;;;;5134288;27;20046;-79
2023/03/10 10:43:47;;;;;;;13.27;7.03;;;2.30;99.90;;;;;;5120866;27;20050;-79
2023/03/10 10:46:21;;;;;;;16.23;6.95;;;2.40;99.90;;;;;;5119290;27;20091;-77
2023/03/10 10:48:50;;;;;;;10.63;6.13;;;2.40;99.90;;;;;;5142093;27;20034;-79
2023/03/10 10:51:28;;;;;;;12.73;6.57;;;3.30;99.90;;;;;;5108008;27;20043;-77
2023/03/10 10:54:00;;;;;;;10.55;6.03;;;2.50;99.90;;;;;;5118690;27;20046;-76
2023/03/10 10:56:27;;;;;;;12.00;5.88;;;2.90;99.90;;;;;;5124368;27;20168;-77
2023/03/10 10:59:26;;;;;;;10.95;5.68;;;2.50;99.90;;;;;;5134765;27;20127;-76
2023/03/10 11:01:56;;;;;;;10.40;5.97;;;2.50;99.90;;;;;;5136010;27;20150;-78
2023/03/10 11:04:24;;;;;;;12.10;5.90;;;2.50;99.90;;;;;;5132361;27;20053;-79
2023/03/10 11:06:51;;;;;;;10.20;5.70;;;2.80;99.90;;;;;;5123603;27;20550;-75
2023/03/10 11:09:20;;;;;;;12.77;6.22;;;2.90;99.90;;;;;;5117643;27;21756;-76
2023/03/10 11:11:54;;;;;;;11.75;6.28;;;2.50;99.90;;;;;;5132848;27;20137;-78
2023/03/10 11:14:50;;;;;;;10.48;5.35;;;2.50;99.90;;;;;;5120288;27;20058;-77
2023/03/10 11:17:22;;;;;;;12.98;5.72;;;2.40;99.90;;;;;;5096955;27;20493;-77
2023/03/10 11:19:57;;;;;;;11.90;5.80;;;2.40;99.90;;;;;;5123016;27;20588;-78
2023/03/10 11:22:32;;;;;;;13.38;6.03;;;2.40;99.90;;;;;;5130140;27;20053;-80
2023/03/10 11:25:06;;;;;;;10.60;5.67;;;2.30;99.90;;;;;;5119702;27;20174;-77
2023/03/10 11:27:45;;;;;;;13.50;5.35;;;2.30;99.90;;;;;;5130882;27;20121;-78
2023/03/10 11:30:13;;;;;;;11.90;6.10;;;2.20;99.90;;;;;;5124285;27;20167;-78
2023/03/10 11:33:12;;;;;;;12.68;6.25;;;2.20;99.90;;;;;;5129002;27;20051;-78
2023/03/10 11:35:47;;;;;;;12.10;5.53;;;2.20;99.90;;;;;;5110980;27;20745;-80
2023/03/10 11:38:36;;;;;;;11.80;5.85;;;2.20;99.90;;;;;;5115757;27;20519;-79
2023/03/10 11:41:12;;;;;;;12.52;5.97;;;2.20;99.90;;;;;;5130113;27;20482;-77
2023/03/10 11:43:50;;;;;;;13.77;5.78;;;2.10;99.90;;;;;;5112017;27;20042;-78
2023/03/10 11:46:30;;;;;;;12.20;5.93;;;2.20;99.90;;;;;;5129043;27;20062;-79
2023/03/10 11:49:09;;;;;;;11.85;6.38;;;2.20;99.90;;;;;;5133936;27;20406;-79
2023/03/10 11:51:41;;;;;;;13.65;6.40;;;2.20;99.90;;;;;;5132443;27;20034;-78
2023/03/10 11:54:21;;;;;;;12.77;6.03;;;2.20;99.90;;;;;;5131617;27;20205;-78
2023/03/10 11:56:49;;;;;;;13.82;6.30;;;2.20;99.90;;;;;;5118006;27;20043;-79
2023/03/10 11:59:20;;;;;;;13.60;6.13;;;2.30;99.90;;;;;;5133659;27;20066;-77
2023/03/10 12:02:02;;;;;;;13.48;6.40;;;2.20;99.90;;;;;;5135583;27;20043;-79
2023/03/10 12:04:40;;;;;;;16.17;6.55;;;2.60;99.90;;;;;;5134542;27;20043;-80
2023/03/10 12:07:14;;;;;;;15.10;7.35;;;2.90;99.90;;;;;;5133586;27;20039;-79
2023/03/10 12:09:48;;;;;;;11.43;6.38;;;2.20;99.90;;;;;;5134961;27;20130;-79
2023/03/10 12:12:20;;;;;;;12.30;5.97;;;2.20;99.90;;;;;;5122855;27;20079;-79
2023/03/10 12:14:46;;;;;;;12.95;6.30;;;2.20;99.90;;;;;;5121838;27;20608;-79
2023/03/10 12:17:14;;;;;;;16.80;6.90;;;2.20;99.90;;;;;;5127716;27;20160;-80
2023/03/10 12:20:17;;;;;;;13.18;6.03;;;2.20;99.90;;;;;;5136279;27;20583;-80
2023/03/10 12:22:50;;;;;;;13.13;6.25;;;2.20;99.90;;;;;;5121339;27;20426;-79
2023/03/10 12:25:34;;;;;;;11.80;6.53;;;2.20;99.90;;;;;;5135369;27;20507;-80
2023/03/10 12:28:15;;;;;;;12.48;6.75;;;2.40;99.90;;;;;;5142103;27;20047;-79
2023/03/10 12:31:00;;;;;;;14.60;6.53;;;2.10;99.90;;;;;;5120100;27;20149;-80
2023/03/10 12:33:29;;;;;;;11.87;6.10;;;2.10;99.90;;;;;;5119385;27;20668;-80
2023/03/10 12:36:08;;;;;;;13.32;6.00;;;2.60;99.90;;;;;;5119320;27;20452;-80
2023/03/10 12:38:36;;;;;;;13.90;6.05;;;2.00;99.90;;;;;;5119524;27;20054;-79
2023/03/10 12:41:03;;;;;;;13.35;6.35;;;2.00;99.90;;;;;;5119187;27;20043;-79
2023/03/10 12:43:57;;;;;;;12.82;6.28;;;2.00;99.90;;;;;;5136078;27;20057;-81
2023/03/10 12:46:49;;;;;;;10.98;5.70;;;2.00;99.90;;;;;;5113248;27;20082;-80
2023/03/10 12:49:24;;;;;;;12.10;5.97;;;2.00;99.90;;;;;;5119638;27;20403;-79
2023/03/10 12:52:14;;;;;;;12.00;5.03;;;2.00;99.90;;;;;;5134729;27;20543;-79
2023/03/10 12:55:11;;;;;;;10.27;4.10;;;2.50;99.90;;;;;;5136303;27;20288;-79